Terminal Aerodrome Forecast
Issued by NWS

Current Version | Previous Version | Text Only | Print | Product List | Glossary On
Versions: 1 2 3 4 5 6 7 8 9 10 11 12 13 14
000
FTUS42 TJSJ 290736 AAA
TAFJBQ
TAF AMD
TJBQ 290736Z 2908/3006 09012G15KT P6SM VCSH BKN060
     FM291300 09020G30KT P6SM VCSH SCT030 BKN050 OVC070
     FM291630 09025G35KT P6SM VCTS SCT020CB BKN040 OVC060
     FM292300 09012KT P6SM VCSH BKN060
      AMD NOT SKED TIL 291100=

USA.gov is the U.S. government's official web portal to all federal, state and local government web resources and services.